createdAt,value
2022-10-05T00:02:32.731Z,7.70
2022-10-05T00:07:30.523Z,7.60
2022-10-05T00:12:30.107Z,7.50
2022-10-05T00:17:30.005Z,7.50
2022-10-05T00:22:52.349Z,7.40
2022-10-05T00:27:57.862Z,7.60
2022-10-05T00:32:59.440Z,7.40
2022-10-05T00:37:58.792Z,7.30
2022-10-05T00:43:17.536Z,7.20
2022-10-05T00:48:54.203Z,7.20
2022-10-05T00:54:00.517Z,7.20
2022-10-05T00:59:12.727Z,7.10
2022-10-05T01:04:32.154Z,7.10
2022-10-05T01:10:02.184Z,6.90
2022-10-05T01:15:33.666Z,6.80
2022-10-05T01:20:53.802Z,6.80
2022-10-05T01:26:06.168Z,6.90
2022-10-05T01:31:32.724Z,7.00
2022-10-05T01:36:39.548Z,6.90
2022-10-05T01:41:39.521Z,6.80
2022-10-05T01:46:44.186Z,6.70
2022-10-05T01:52:07.320Z,6.80
2022-10-05T01:57:07.276Z,6.80
2022-10-05T02:02:11.366Z,6.80
2022-10-05T02:07:21.212Z,6.80
2022-10-05T02:12:21.648Z,6.80
2022-10-05T02:17:27.626Z,6.60
2022-10-05T02:22:48.430Z,6.40
2022-10-05T02:27:57.182Z,6.40
2022-10-05T02:33:28.249Z,6.40
2022-10-05T02:39:01.360Z,6.50
2022-10-05T02:44:22.877Z,6.50
2022-10-05T02:49:28.116Z,6.30
2022-10-05T02:55:00.965Z,6.20
2022-10-05T03:00:17.521Z,6.30
2022-10-05T03:05:55.158Z,6.40
2022-10-05T03:11:00.331Z,6.40
2022-10-05T03:16:06.357Z,6.40
2022-10-05T03:21:12.271Z,6.30
2022-10-05T03:26:32.670Z,6.50
2022-10-05T03:31:41.031Z,6.70
2022-10-05T03:37:03.158Z,6.90
2022-10-05T03:42:08.206Z,6.90
2022-10-05T03:47:20.390Z,6.80
2022-10-05T03:52:30.085Z,7.00
2022-10-05T03:57:33.598Z,7.30
2022-10-05T04:02:46.042Z,7.40
2022-10-05T04:08:06.854Z,7.40
2022-10-05T04:13:19.494Z,7.40
2022-10-05T04:18:59.581Z,7.50
2022-10-05T04:24:01.479Z,7.60
2022-10-05T04:29:30.149Z,7.70
2022-10-05T04:34:57.022Z,7.60
2022-10-05T04:40:06.725Z,7.50
2022-10-05T04:46:06.772Z,7.50
2022-10-05T04:51:53.547Z,7.70
2022-10-05T04:56:58.789Z,7.70
2022-10-05T05:02:19.954Z,7.70
2022-10-05T05:07:55.215Z,7.70
2022-10-05T05:13:08.991Z,7.60
2022-10-05T05:18:48.305Z,7.60
2022-10-05T05:24:05.265Z,7.60
2022-10-05T05:29:28.225Z,7.60
2022-10-05T05:34:36.372Z,7.60
2022-10-05T05:39:50.056Z,7.70
2022-10-05T05:44:58.143Z,7.70
2022-10-05T05:50:13.561Z,7.70
2022-10-05T05:55:30.598Z,7.80
2022-10-05T06:00:38.054Z,7.80
2022-10-05T06:06:04.455Z,7.70
2022-10-05T06:11:47.220Z,7.80
2022-10-05T06:17:05.442Z,8.30
2022-10-05T06:22:37.829Z,8.60
2022-10-05T06:27:37.439Z,8.60
2022-10-05T06:33:06.319Z,8.60
2022-10-05T06:38:40.915Z,8.70
2022-10-05T06:43:57.505Z,8.80
2022-10-05T06:49:03.825Z,9.30
2022-10-05T06:54:19.813Z,9.50
2022-10-05T06:59:20.422Z,9.50
2022-10-05T07:04:33.345Z,10.10
2022-10-05T07:09:48.637Z,10.30
2022-10-05T07:14:57.182Z,10.20
2022-10-05T07:20:20.265Z,10.20
2022-10-05T07:25:20.706Z,10.40
2022-10-05T07:30:18.430Z,10.40
2022-10-05T07:41:40.378Z,15.40
2022-10-05T07:46:49.995Z,18.10
2022-10-05T07:51:58.596Z,19.30
2022-10-05T07:57:12.905Z,19.90
2022-10-05T08:02:33.329Z,20.10
2022-10-05T08:07:34.730Z,19.80
2022-10-05T08:12:40.307Z,18.40
2022-10-05T08:18:10.000Z,19.00
2022-10-05T08:23:33.365Z,20.70
2022-10-05T08:28:47.311Z,21.00
2022-10-05T08:34:03.860Z,22.50
2022-10-05T08:39:05.546Z,22.70
2022-10-05T08:44:51.301Z,22.80
2022-10-05T08:49:58.908Z,22.10
2022-10-05T08:55:27.454Z,22.20
2022-10-05T09:00:32.635Z,23.20
2022-10-05T09:05:51.698Z,23.20
2022-10-05T09:10:48.796Z,24.10
2022-10-05T09:15:49.009Z,24.40
2022-10-05T09:21:06.508Z,22.90
2022-10-05T09:26:27.567Z,22.50
2022-10-05T09:31:33.530Z,22.00
2022-10-05T09:37:08.817Z,22.80
2022-10-05T09:42:34.185Z,23.50
2022-10-05T09:47:46.438Z,23.20
2022-10-05T09:53:10.988Z,22.60
2022-10-05T09:58:37.144Z,22.10
2022-10-05T10:04:07.221Z,21.50
2022-10-05T10:09:42.151Z,21.30
2022-10-05T10:15:02.534Z,21.10
2022-10-05T10:20:09.466Z,21.20
2022-10-05T10:25:21.998Z,20.60
2022-10-05T10:30:47.930Z,20.10
2022-10-05T10:35:55.379Z,19.10
2022-10-05T10:41:14.314Z,18.50
2022-10-05T10:46:48.577Z,18.10
2022-10-05T10:52:08.849Z,18.30
2022-10-05T10:57:11.973Z,18.40
2022-10-05T11:02:48.265Z,18.30
2022-10-05T11:08:01.352Z,18.20
2022-10-05T11:13:25.050Z,18.10
2022-10-05T11:18:40.482Z,18.20
2022-10-05T11:24:04.100Z,18.50
2022-10-05T11:29:04.025Z,18.60
2022-10-05T11:34:16.531Z,18.50
2022-10-05T11:39:40.827Z,18.30
2022-10-05T11:45:02.361Z,18.00
2022-10-05T11:50:20.643Z,17.80
2022-10-05T11:55:32.951Z,17.80
2022-10-05T12:00:50.363Z,17.90
2022-10-05T12:06:02.667Z,18.10
2022-10-05T12:11:37.955Z,18.10
2022-10-05T12:16:51.199Z,18.10
2022-10-05T12:22:25.880Z,18.00
2022-10-05T12:27:29.841Z,18.30
2022-10-05T12:33:08.346Z,18.50
2022-10-05T12:38:51.155Z,18.50
2022-10-05T12:44:08.255Z,18.70
2022-10-05T12:49:30.220Z,18.80
2022-10-05T12:54:42.232Z,19.00
2022-10-05T12:59:42.711Z,19.00
2022-10-05T13:05:09.829Z,19.10
2022-10-05T13:10:51.230Z,19.10
2022-10-05T13:15:56.694Z,19.10
2022-10-05T13:21:13.278Z,19.20
2022-10-05T13:26:16.122Z,19.10
2022-10-05T13:31:27.031Z,19.00
2022-10-05T13:36:42.491Z,18.90
2022-10-05T13:41:56.773Z,18.80
2022-10-05T13:47:17.372Z,18.60
2022-10-05T13:52:33.319Z,18.70
2022-10-05T13:58:08.398Z,18.70
2022-10-05T14:03:31.214Z,18.60
2022-10-05T14:08:46.388Z,18.70
2022-10-05T14:13:43.668Z,18.70
2022-10-05T14:19:06.427Z,18.70
2022-10-05T14:24:45.875Z,18.60
2022-10-05T14:29:44.151Z,18.70
2022-10-05T14:34:55.462Z,18.60
2022-10-05T14:39:57.825Z,18.60
2022-10-05T14:45:12.044Z,18.50
2022-10-05T14:50:21.499Z,18.40
2022-10-05T14:55:51.111Z,18.40
2022-10-05T15:01:14.888Z,18.30
2022-10-05T15:06:39.204Z,18.30
2022-10-05T15:11:51.384Z,18.20
2022-10-05T15:16:53.013Z,18.30
2022-10-05T15:22:11.874Z,18.10
2022-10-05T15:27:49.389Z,18.10
2022-10-05T15:33:05.379Z,18.00
2022-10-05T15:38:12.119Z,17.90
2022-10-05T15:43:17.179Z,17.80
2022-10-05T15:48:20.753Z,17.70
2022-10-05T15:53:25.545Z,17.50
2022-10-05T15:58:36.141Z,17.40
2022-10-05T16:03:49.570Z,17.10
2022-10-05T16:09:01.378Z,16.80
2022-10-05T16:14:14.247Z,16.50
2022-10-05T16:19:38.343Z,16.30
2022-10-05T16:24:49.419Z,16.00
2022-10-05T16:30:04.238Z,15.80
2022-10-05T16:35:01.485Z,15.50
2022-10-05T16:40:32.833Z,15.30
2022-10-05T16:45:59.649Z,15.10
2022-10-05T16:51:16.383Z,14.90
2022-10-05T16:56:21.417Z,14.80
2022-10-05T17:01:50.054Z,14.70
2022-10-05T17:07:02.144Z,14.40
2022-10-05T17:12:02.644Z,14.30
2022-10-05T17:17:21.480Z,14.20
2022-10-05T17:22:30.750Z,14.00
2022-10-05T17:27:55.549Z,14.00
2022-10-05T17:33:14.340Z,14.00
2022-10-05T17:38:41.805Z,13.90
2022-10-05T17:43:39.408Z,13.70
2022-10-05T17:48:38.773Z,13.50
2022-10-05T17:54:01.959Z,13.40
2022-10-05T17:59:02.224Z,13.20
2022-10-05T18:04:11.552Z,13.20
2022-10-05T18:09:17.139Z,13.10
2022-10-05T18:14:26.499Z,13.10
2022-10-05T18:19:24.374Z,13.00
2022-10-05T18:24:31.579Z,12.90
2022-10-05T18:29:55.963Z,12.70
2022-10-05T18:35:12.662Z,12.70
2022-10-05T18:40:37.266Z,12.60
2022-10-05T18:46:00.892Z,12.50
2022-10-05T18:51:28.579Z,12.50
2022-10-05T18:56:37.622Z,12.40
2022-10-05T19:01:46.828Z,12.30
2022-10-05T19:07:05.921Z,12.10
2022-10-05T19:12:06.029Z,12.10
2022-10-05T19:17:12.375Z,12.00
2022-10-05T19:22:12.660Z,12.10
2022-10-05T19:27:18.875Z,12.00
2022-10-05T19:32:43.726Z,11.90
2022-10-05T19:38:20.906Z,11.80
2022-10-05T19:43:21.335Z,11.80
2022-10-05T19:48:36.232Z,11.80
2022-10-05T19:53:37.980Z,11.80
2022-10-05T19:58:40.035Z,11.80
2022-10-05T20:03:38.315Z,11.70
2022-10-05T20:08:44.352Z,11.50
2022-10-05T20:14:06.894Z,11.50
2022-10-05T20:19:56.332Z,11.40
2022-10-05T20:25:21.575Z,11.30
2022-10-05T20:30:24.219Z,11.30
2022-10-05T20:35:26.431Z,11.10
2022-10-05T20:40:23.919Z,11.10
2022-10-05T20:45:21.644Z,11.10
2022-10-05T20:50:20.327Z,11.00
2022-10-05T20:55:17.659Z,10.90
2022-10-05T21:00:15.029Z,10.90
2022-10-05T21:05:12.352Z,10.80
2022-10-05T21:10:10.018Z,10.60
2022-10-05T21:15:07.899Z,10.60
2022-10-05T21:20:05.463Z,10.60
2022-10-05T21:25:02.988Z,10.50
2022-10-05T21:30:00.736Z,10.40
2022-10-05T21:34:58.113Z,10.40
2022-10-05T21:39:55.298Z,10.20
2022-10-05T21:44:52.517Z,10.30
2022-10-05T21:49:49.846Z,10.30
2022-10-05T21:54:47.264Z,10.20
2022-10-05T21:59:44.868Z,10.20
2022-10-05T22:04:42.191Z,10.30
2022-10-05T22:09:39.430Z,10.10
2022-10-05T22:14:36.771Z,10.00
2022-10-05T22:19:33.956Z,10.10
2022-10-05T22:24:31.235Z,10.00
2022-10-05T22:29:28.999Z,10.00
2022-10-05T22:34:26.401Z,9.90
2022-10-05T22:39:23.640Z,9.80
2022-10-05T22:44:20.916Z,9.60
2022-10-05T22:49:18.341Z,9.80
2022-10-05T22:54:15.966Z,9.80
2022-10-05T22:59:13.371Z,9.70
2022-10-05T23:04:12.072Z,9.80
2022-10-05T23:09:09.250Z,9.70
2022-10-05T23:14:06.527Z,9.60
2022-10-05T23:19:03.834Z,9.60
2022-10-05T23:24:01.010Z,9.60
2022-10-05T23:28:59.104Z,9.60
2022-10-05T23:33:57.406Z,9.50
2022-10-05T23:38:54.975Z,9.40
2022-10-05T23:43:54.806Z,9.40
2022-10-05T23:48:53.338Z,9.30
2022-10-05T23:53:50.580Z,9.30
2022-10-05T23:58:47.939Z,9.30
